Home > Products > Valid Products > TAF

000
FTUS44 KAMA 030100 AAB
TAFAMA
TAF AMD
KAMA 030129Z 0301/0324 12012KT P6SM VCTS SCT090CB
      TEMPO 0301/0303 VRB15G25KT -TSRA
     FM030300 14013KT P6SM SKC
     FM030600 20010KT P6SM SKC
     FM031400 21018G25KT P6SM SKC=



000
FTUS44 KAMA 030100 AAA
TAFDHT
TAF AMD
KDHT 030128Z 0301/0324 10005KT P6SM SKC
     FM030900 20012KT P6SM FEW120
     FM031500 20018G28KT P6SM SKC=



000
FTUS44 KAMA 030000 AAA
TAFAMA
TAF AMD
KAMA 030044Z 0301/0324 06017G25KT P6SM VCTS SCT090CB
      TEMPO 0301/0303 VRB25G35KT -TSRA
     FM030300 14013KT P6SM SKC
     FM030600 20010KT P6SM SKC
     FM031400 21018G25KT P6SM SKC=



000
FTUS44 KAMA 022300 CCA
TAFAMA
TAF COR
KAMA 022351Z 0300/0324 14013KT P6SM VCTS SCT070CB
      TEMPO 0300/0302 VRB25G45KT 1SM TSRA OVC030CB
     FM030600 20010KT P6SM SKC
     FM031400 21018G25KT P6SM SKC=



000
FTUS44 KAMA 022300 CCA
TAFAMA
TAF COR
KAMA 022327Z 0300/0324 14013KT P6SM VCTS SCT090CB
      TEMPO 0300/0302 VRB25G35KT TSRA
     FM030600 20010KT P6SM SKC
     FM031400 21018G25KT P6SM SKC=



000
FTUS44 KAMA 022300
TAFAMA
TAF
KAMA 022320Z 0300/0324 14013KT P6SM SCT090
     FM030600 20010KT P6SM SKC
     FM031400 21018G25KT P6SM SKC=



000
FTUS44 KAMA 022300
TAFGUY
TAF
KGUY 022320Z 0300/0324 12008KT P6SM SKC
     FM030900 20010KT P6SM FEW150
     FM031400 20020G30KT P6SM SKC=



000
FTUS44 KAMA 022300
TAFDHT
TAF
KDHT 022320Z 0300/0324 12012KT P6SM SKC
     FM030900 20012KT P6SM FEW120
     FM031500 20018G28KT P6SM SKC=



000
FTUS44 KAMA 022200 AAA
TAFAMA
TAF AMD
KAMA 022258Z 0223/0318 12013KT P6SM SCT090
     FM030600 20010KT P6SM SKC=



000
FTUS44 KAMA 022200 AAA
TAFGUY
TAF AMD
KGUY 022257Z 0223/0318 12013KT P6SM SKC
     FM030900 20010KT P6SM FEW150=



000
FTUS44 KAMA 022100 AAB
TAFDHT
TAF AMD
KDHT 022101Z 0221/0318 09008KT P6SM SCT030
     FM022300 VRB04KT P6SM SCT030
     FM030900 20011KT P6SM FEW120=



000
FTUS44 KAMA 021800 AAA
TAFDHT
TAF AMD
KDHT 021811Z 0218/0318 04010KT P6SM BKN015
     FM021900 05010KT P6SM BKN020
     FM022200 VRB04KT P6SM SCT030
     FM030900 20011KT P6SM FEW120=



000
FTUS44 KAMA 021700
TAFGUY
TAF
KGUY 021720Z 0218/0318 VRB04KT P6SM SCT020
     FM022100 VRB04KT P6SM SCT050
     FM030900 20010KT P6SM FEW150=



000
FTUS44 KAMA 021700
TAFDHT
TAF
KDHT 021720Z 0218/0318 05010KT P6SM BKN020
     FM022200 VRB04KT P6SM SCT030
     FM030900 20011KT P6SM FEW120=



000
FTUS44 KAMA 021700
TAFAMA
TAF
KAMA 021720Z 0218/0318 VRB04KT P6SM SKC
     FM022200 17013KT P6SM SCT080
     FM030600 20010KT P6SM SKC=



000
FTUS44 KAMA 021500 AAB
TAFGUY
TAF AMD
KGUY 021501Z 0215/0312 03009KT P6SM BKN040
      TEMPO 0215/0216 BKN015
     FM021700 08007KT P6SM OVC015
     FM022000 13007KT P6SM SCT040
     FM030000 17009KT P6SM SCT100=



000
FTUS44 KAMA 021400 AAC
TAFAMA
TAF AMD
KAMA 021441Z 0215/0312 36008KT 6SM BR BKN010
     FM021600 02008KT P6SM SCT040
     FM022000 17014KT P6SM SCT100=



000
FTUS44 KAMA 021400 AAA
TAFGUY
TAF AMD
KGUY 021440Z 0215/0312 03009KT P6SM OVC005
      TEMPO 0215/0216 6SM BR SCT007 BKN010
     FM021700 08007KT P6SM OVC015
     FM022000 13007KT P6SM SCT040
     FM030000 17009KT P6SM SCT100=



000
FTUS44 KAMA 021300 AAB
TAFAMA
TAF AMD
KAMA 021320Z 0213/0312 36008KT 5SM BR BKN005
      TEMPO 0213/0215 6SM BR
     FM021600 02008KT P6SM SCT040
     FM022000 17014KT P6SM SCT100=



000
FTUS44 KAMA 021200 AAA
TAFAMA
TAF AMD
KAMA 021214Z 0212/0312 36009KT 2SM BR BKN002
      TEMPO 0212/0214 1SM BR
     FM021400 36009KT 4SM BR BKN005
      TEMPO 0214/0216 6SM BR
     FM021600 02008KT P6SM SCT040
     FM022000 17014KT P6SM SCT100=



000
FTUS44 KAMA 021100
TAFDHT
TAF
KDHT 021138Z 0212/0312 03011KT 5SM BR OVC005
     FM021600 04009KT P6SM OVC015
     FM021900 10008KT P6SM SCT050
     FM022200 17010KT P6SM FEW100=



000
FTUS44 KAMA 021100
TAFGUY
TAF
KGUY 021138Z 0212/0312 03009KT P6SM OVC005
      TEMPO 0212/0216 5SM BR
     FM021700 08007KT P6SM OVC015
     FM022000 13007KT P6SM SCT040
     FM030000 17009KT P6SM SCT100=



000
FTUS44 KAMA 021100
TAFAMA
TAF
KAMA 021138Z 0212/0312 29008KT P6SM SCT010
     FM021300 36009KT P6SM SCT005
      TEMPO 0213/0215 6SM BR BKN005
     FM021600 02008KT P6SM SCT040
     FM022000 17014KT P6SM SCT100=



000
FTUS44 KAMA 020500
TAFAMA
TAF
KAMA 020520Z 0206/0306 08010KT P6SM SKC
     FM020800 VRB05KT P6SM SCT010
     FM021600 34008KT P6SM SKC
     FM022100 16012KT P6SM SCT100=



000
FTUS44 KAMA 020500
TAFGUY
TAF
KGUY 020520Z 0206/0306 08007KT P6SM SKC
     FM020700 04006KT 4SM BR SCT004 OVC008
     FM021800 07007KT P6SM FEW030=



000
FTUS44 KAMA 020500
TAFDHT
TAF
KDHT 020520Z 0206/0306 08008KT P6SM SKC
     FM020800 02010KT 4SM BR SCT004 OVC008
     FM021800 12008KT P6SM FEW040=



000
FTUS44 KAMA 020400 AAB
TAFAMA
TAF AMD
KAMA 020400Z 0204/0224 08010KT P6SM SKC
     FM020800 VRB05KT P6SM SCT010
     FM021600 02008KT P6SM SKC
     FM022100 16012KT P6SM FEW100=



000
FTUS44 KAMA 020400 AAB
TAFAMA
TAF AMD
KAMA 020400Z 0204/0224 08010KT P6SM SKC
     FM020800 VRB05KT P6SM SCT010
     FM021600 02008KT P6SM SKC
     FM022100 16012KT P6SM FEW100=



000
FTUS44 KAMA 020200 CCA
TAFGUY
TAF COR
KGUY 020245Z 0203/0224 08007KT P6SM SKC
     FM020700 03006KT 6SM BR SCT004 BKN008
     FM021700 07007KT P6SM FEW030=



000
FTUS44 KAMA 020200 AAA
TAFDHT
TAF AMD
KDHT 020244Z 0203/0224 08008KT P6SM SKC
     FM021000 02010KT 6SM BR SCT004 BKN008
     FM021800 08008KT P6SM FEW040=



000
FTUS44 KAMA 020200 AAA
TAFAMA
TAF AMD
KAMA 020244Z 0203/0224 14010KT P6SM SKC
     FM020800 20009KT P6SM SCT010
     FM021600 02008KT P6SM SKC
     FM022100 16012KT P6SM FEW100=



000
FTUS44 KAMA 020200 AAA
TAFGUY
TAF AMD
KGUY 020244Z 0203/0224 08007KT P6SM SKC
     FM020700 03006KT 6SM BR SCT003 BKN006
     FM021700 07007KT P6SM FEW030=



000
FTUS44 KAMA 012300
TAFDHT
TAF
KDHT 012335Z 0200/0224 08008KT P6SM SKC
     FM021000 02010KT 5SM BR SCT004 BKN006
     FM021700 08008KT P6SM FEW040=



000
FTUS44 KAMA 012300
TAFGUY
TAF
KGUY 012335Z 0200/0224 08007KT P6SM SKC
     FM020700 03006KT 4SM BR SCT003 BKN006
     FM021600 07007KT P6SM FEW030=



000
FTUS44 KAMA 012300
TAFAMA
TAF
KAMA 012335Z 0200/0224 14010KT P6SM SKC
     FM020800 20009KT P6SM FEW110
     FM021600 02008KT P6SM SKC
     FM022100 16012KT P6SM FEW100=



000
FTUS44 KAMA 011700
TAFGUY
TAF
KGUY 011720Z 0118/0218 06010KT P6SM FEW120=



000
FTUS44 KAMA 011700
TAFDHT
TAF
KDHT 011720Z 0118/0218 08010KT P6SM FEW120
     FM020400 03010KT P6SM SCT120=



000
FTUS44 KAMA 011700
TAFAMA
TAF
KAMA 011720Z 0118/0218 36009KT P6SM FEW200
     FM020100 12010KT P6SM FEW120
     FM021000 02010KT P6SM SCT120=



000
FTUS44 KAMA 011100
TAFDHT
TAF
KDHT 011120Z 0112/0212 01010KT P6SM FEW200
     FM012200 10010KT P6SM FEW080
     FM020400 04010KT P6SM SCT120=



000
FTUS44 KAMA 011100
TAFGUY
TAF
KGUY 011120Z 0112/0212 36008KT P6SM FEW200
     FM020100 08010KT P6SM SCT080 BKN200
     FM020800 04008KT P6SM BKN080=



000
FTUS44 KAMA 011100
TAFAMA
TAF
KAMA 011120Z 0112/0212 26010KT P6SM FEW200
     FM011400 34009KT P6SM FEW200
     FM020100 10010KT P6SM SCT120
     FM020800 18012KT P6SM SCT080
     FM021000 02010KT P6SM SCT100=



000
FTUS44 KAMA 010800 AAA
TAFAMA
TAF AMD
KAMA 010822Z 0108/0206 20016G26KT P6SM SKC
     FM011100 34010KT P6SM SKC
     FM012300 14008KT P6SM SCT120=



000
FTUS44 KAMA 010500
TAFAMA
TAF
KAMA 010520Z 0106/0206 20016KT P6SM SKC
     FM011100 34010KT P6SM SKC
     FM012300 14008KT P6SM SCT120=



000
FTUS44 KAMA 010500
TAFDHT
TAF
KDHT 010520Z 0106/0206 36012KT P6SM SKC
     FM011900 14011KT P6SM FEW080=



000
FTUS44 KAMA 010500
TAFGUY
TAF
KGUY 010520Z 0106/0206 36013KT P6SM SKC
     FM012000 08006KT P6SM SKC=



000
FTUS44 KAMA 010400 AAA
TAFDHT
TAF AMD
KDHT 010417Z 0104/0124 24013KT P6SM SKC
     FM010430 36012KT P6SM SKC
     FM011900 14011KT P6SM FEW080=



000
FTUS44 KAMA 010400 AAA
TAFGUY
TAF AMD
KGUY 010415Z 0104/0124 36013KT P6SM SKC
     FM012000 08006KT P6SM SKC=



000
FTUS44 KAMA 312300
TAFDHT
TAF
KDHT 312325Z 0100/0124 23018G26KT P6SM SKC
     FM010100 24013KT P6SM SKC
     FM010600 28008KT P6SM SKC
     FM010900 36007KT P6SM SKC
     FM011900 14011KT P6SM FEW080=



000
FTUS44 KAMA 312300
TAFAMA
TAF
KAMA 312325Z 0100/0124 19018G26KT P6SM SKC
     FM010200 20016KT P6SM SKC
     FM011100 26010KT P6SM SKC
     FM011600 32008KT P6SM SCT110=



000
FTUS44 KAMA 312300
TAFGUY
TAF
KGUY 312325Z 0100/0124 22018G26KT P6SM SKC
     FM010100 23015KT P6SM FEW120
     FM010600 34010KT P6SM SKC
     FM012000 08006KT P6SM SKC=



000
FTUS44 KAMA 311700
TAFDHT
TAF
KDHT 311720Z 3118/0118 23015G25KT P6SM SKC
     FM010100 24014KT P6SM SKC
     FM010600 32008KT P6SM SKC=



000
FTUS44 KAMA 311700
TAFAMA
TAF
KAMA 311720Z 3118/0118 21015G25KT P6SM SKC
     FM010400 21011KT P6SM FEW250=



000
FTUS44 KAMA 311700
TAFGUY
TAF
KGUY 311720Z 3118/0118 22015G25KT P6SM SKC
     FM010100 24014KT P6SM SKC
     FM010700 33010KT P6SM FEW250=



000
FTUS44 KAMA 311100
TAFAMA
TAF
KAMA 311120Z 3112/0112 20015KT P6SM FEW250
     FM311400 21022G30KT P6SM FEW250
     FM010100 20015KT P6SM FEW250=



000
FTUS44 KAMA 311100
TAFDHT
TAF
KDHT 311120Z 3112/0112 20012KT P6SM FEW250
     FM311400 23022G30KT P6SM FEW250
     FM010100 24014KT P6SM FEW250
     FM011000 30008KT P6SM FEW250=



000
FTUS44 KAMA 311100
TAFGUY
TAF
KGUY 311120Z 3112/0112 19012KT P6SM FEW250
     FM311400 22023G31KT P6SM FEW250
     FM010100 21014KT P6SM FEW250
     FM010900 34010KT P6SM FEW250=



000
FTUS44 KAMA 310700 AAA
TAFAMA
TAF AMD
KAMA 310757Z 3108/0106 18016KT P6SM SCT120
     FM311400 22021G29KT P6SM SCT100=



000
FTUS44 KAMA 310500
TAFGUY
TAF
KGUY 310520Z 3106/0106 17018KT P6SM FEW100
     FM311400 21020G29KT P6SM SCT110=



000
FTUS44 KAMA 310500
TAFDHT
TAF
KDHT 310520Z 3106/0106 18015KT P6SM SCT100
     FM310900 20009KT P6SM SKC
     FM311400 22019G29KT P6SM FEW100=



000
FTUS44 KAMA 310500
TAFAMA
TAF
KAMA 310520Z 3106/0106 15016KT P6SM SCT120
     FM311400 22021G29KT P6SM SCT100=



000
FTUS44 KAMA 310400 AAA
TAFGUY
TAF AMD
KGUY 310403Z 3104/3124 17018KT P6SM FEW100
     FM311400 22020G29KT P6SM SCT110=



    US Dept of Commerce
    National Oceanic and Atmospheric Administration
    National Weather Service
    1325 East West Highway
    Silver Spring, MD 20910
    Page Author: NWS Internet Services Team
Disclaimer
Information Quality
Credits
Glossary
Privacy Policy
Freedom of Information Act (FOIA)
About Us
Career Opportunities